Archival Weather

Chicago O'Hare International

Chicago, Illinois (KORD)

Report from: Wednesday, December 28, 2022 9:51 AM CST
Current time: Saturday, June 22, 2024 5:30 AM CDT

Current weather – Weather history – Daily summaries
Weather forecast

Temperature1.7°C (35.1°F)
Wind chill-4.2°C (24.4°F)
Dew point-4.4°C (24.1°F)
Winds 16 kts (8.2 m/s, 18.4 mph) South (190°)
Wind gusts 23 kts (11.8 m/s, 26.5 mph)
Peak wind 26 kts (13.4 m/s, 29.9 mph) South (180°) at 15:32
Visibility10 mi. (16.1 km)
Clouds Ceiling: Broken clouds 25,000 ft. (7,620 m)
Altimeter29.82 in.Hg (1010 mB)
Relative humidity64 %
Density altitude-1,448 ft. (-441 m)
Sea-level pressure101.0 kPa (1010 mB, 29.83 in.Hg)
Remarks Automated weather observing station with precipitation discriminator
Flight conditions Visual Meteorological Conditions
Raw dataKORD 281551Z 19016G23KT 10SM BKN250 02/M04 A2982 RMK AO2 PK WND 18026/1532 SLP103 T00171044
An error has occurred. This application may no longer respond until reloaded. Reload 🗙